Terminal Aerodrome Forecast
Issued by NWS Wilmington, NC

Home | Current Version | Previous Version | Text Only | Print | Product List | Glossary On
Versions: 1 2 3 4 5 6 7 8 9 10 11 12 13 14 15 16
267
FTUS42 KILM 252340
TAFMYR
TAF
KMYR 252340Z 2600/2624 20010KT P6SM FEW060
     FM260200 26011KT P6SM SKC
     FM260600 30010KT P6SM SKC
     FM261400 35009KT P6SM SKC
      AMD LTD TO CLD VIS AND WIND 2604/2611=

USA.gov is the U.S. government's official web portal to all federal, state and local government web resources and services.